Time;durP1;ratioP1;P1;durP2;ratioP2;P2;SDS_P1;SDS_P2;PMS_P1;PMS_P2;Temp;Humidity;BMP_temperature;BMP_pressure;BME280_temperature;BME280_humidity;BME280_pressure;Samples;Min_cycle;Max_cycle;Signal;HPM_P1;HPM_P2
2022/12/07 00:01:24;;;;;;;;;73.75;58.25;;;;;;;;5061262;28;46104;-78
2022/12/07 00:03:52;;;;;;;;;72.25;56.50;;;;;;;;5061446;28;45151;-78
2022/12/07 00:06:18;;;;;;;;;71.25;57.00;;;;;;;;5059632;28;45692;-78
2022/12/07 00:08:43;;;;;;;;;73.75;59.00;;;;;;;;5061205;28;45462;-78
2022/12/07 00:11:10;;;;;;;;;71.50;55.50;;;;;;;;5059763;28;47478;-78
2022/12/07 00:13:36;;;;;;;;;74.75;58.50;;;;;;;;5061079;28;45218;-78
2022/12/07 00:16:06;;;;;;;;;73.25;57.50;;;;;;;;5061382;28;45291;-78
2022/12/07 00:18:31;;;;;;;;;61.75;50.50;;;;;;;;5059426;28;47048;-78
2022/12/07 00:21:17;;;;;;;;;68.75;55.00;;;;;;;;5060933;28;45417;-78
2022/12/07 00:23:43;;;;;;;;;68.25;55.50;;;;;;;;5060553;28;45304;-78
2022/12/07 00:26:15;;;;;;;;;59.00;48.75;;;;;;;;5061468;28;45301;-78
2022/12/07 00:28:40;;;;;;;;;69.00;55.25;;;;;;;;5059025;28;47494;-78
2022/12/07 00:31:11;;;;;;;;;67.25;55.25;;;;;;;;5059587;28;47633;-78
2022/12/07 00:33:38;;;;;;;;;69.25;55.50;;;;;;;;5060878;28;45396;-78
2022/12/07 00:36:04;;;;;;;;;71.50;56.75;;;;;;;;5059418;28;45300;-78
2022/12/07 00:38:31;;;;;;;;;72.00;59.00;;;;;;;;5060427;28;46317;-78
2022/12/07 00:41:04;;;;;;;;;70.50;57.00;;;;;;;;5059262;28;48417;-78
2022/12/07 00:43:30;;;;;;;;;70.75;56.75;;;;;;;;5060732;28;45346;-79
2022/12/07 00:45:55;;;;;;;;;67.50;55.75;;;;;;;;5059364;28;45401;-78
2022/12/07 00:48:21;;;;;;;;;68.75;56.00;;;;;;;;5060665;28;45525;-78
2022/12/07 00:50:46;;;;;;;;;80.75;61.75;;;;;;;;5060372;28;45361;-78
2022/12/07 00:53:15;;;;;;;;;80.25;58.50;;;;;;;;5060509;28;45353;-79
2022/12/07 00:55:40;;;;;;;;;71.25;56.00;;;;;;;;5060652;28;45824;-78
2022/12/07 00:58:08;;;;;;;;;76.25;59.50;;;;;;;;5060551;28;45288;-79
2022/12/07 01:00:35;;;;;;;;;68.50;54.25;;;;;;;;5060323;28;45364;-79
2022/12/07 01:03:00;;;;;;;;;73.50;59.00;;;;;;;;5060175;28;45452;-79
2022/12/07 01:05:25;;;;;;;;;72.50;58.50;;;;;;;;5059092;28;45468;-79
2022/12/07 01:07:50;;;;;;;;;74.50;59.25;;;;;;;;5052031;28;47110;-79
2022/12/07 01:10:19;;;;;;;;;77.50;62.00;;;;;;;;5057388;28;47008;-78
2022/12/07 01:12:49;;;;;;;;;83.00;65.00;;;;;;;;5060416;28;45341;-79
2022/12/07 01:15:14;;;;;;;;;74.75;59.75;;;;;;;;5058929;28;45358;-79
2022/12/07 01:17:43;;;;;;;;;77.25;62.75;;;;;;;;5059992;28;45451;-79
2022/12/07 01:20:08;;;;;;;;;68.75;55.00;;;;;;;;5059359;28;45693;-79
2022/12/07 01:22:45;;;;;;;;;54.25;39.75;;;;;;;;5058594;28;45408;-80
2022/12/07 01:25:11;;;;;;;;;65.00;54.25;;;;;;;;5058729;28;45403;-79
2022/12/07 01:27:44;;;;;;;;;65.50;52.75;;;;;;;;5058689;28;47098;-79
2022/12/07 01:30:10;;;;;;;;;65.50;52.00;;;;;;;;5058309;28;48288;-80
2022/12/07 01:32:41;;;;;;;;;36.75;31.25;;;;;;;;5059701;28;45382;-80
2022/12/07 01:35:12;;;;;;;;;65.50;54.00;;;;;;;;5059730;28;45413;-80
2022/12/07 01:37:40;;;;;;;;;56.50;46.25;;;;;;;;5045449;28;45248;-80
2022/12/07 01:40:07;;;;;;;;;55.50;46.75;;;;;;;;5058493;28;45504;-80
2022/12/07 01:42:36;;;;;;;;;62.50;48.50;;;;;;;;5059302;28;45291;-80
2022/12/07 01:45:20;;;;;;;;;62.50;49.25;;;;;;;;5059947;28;45334;-80
2022/12/07 01:47:48;;;;;;;;;61.25;49.75;;;;;;;;5059321;28;45798;-80
2022/12/07 01:50:13;;;;;;;;;63.50;49.75;;;;;;;;5058005;28;48037;-80
2022/12/07 01:52:39;;;;;;;;;54.25;45.00;;;;;;;;5057734;28;45544;-80
2022/12/07 01:55:07;;;;;;;;;56.75;46.75;;;;;;;;5058353;28;45391;-80
2022/12/07 01:57:37;;;;;;;;;56.00;44.00;;;;;;;;5057978;28;47183;-80
2022/12/07 02:00:06;;;;;;;;;54.50;45.00;;;;;;;;5057929;28;48520;-81
2022/12/07 02:02:37;;;;;;;;;60.75;47.00;;;;;;;;5057827;28;45426;-80
2022/12/07 02:05:03;;;;;;;;;62.25;48.50;;;;;;;;5058074;28;45484;-81
2022/12/07 02:07:31;;;;;;;;;61.25;51.00;;;;;;;;5059143;28;45473;-80
2022/12/07 02:09:58;;;;;;;;;61.50;51.25;;;;;;;;5057615;28;46953;-81
2022/12/07 02:12:24;;;;;;;;;58.25;48.75;;;;;;;;5058054;28;45338;-80
2022/12/07 02:14:50;;;;;;;;;57.75;48.50;;;;;;;;5057876;28;45464;-81
2022/12/07 02:17:38;;;;;;;;;62.00;48.00;;;;;;;;5057500;28;47150;-81
2022/12/07 02:20:11;;;;;;;;;65.50;51.25;;;;;;;;5058839;28;45334;-82
2022/12/07 02:22:50;;;;;;;;;66.25;49.75;;;;;;;;5057773;28;45995;-81
2022/12/07 02:25:34;;;;;;;;;67.75;52.00;;;;;;;;5059162;28;45271;-81
2022/12/07 02:28:20;;;;;;;;;68.00;53.25;;;;;;;;5057581;28;45772;-81
2022/12/07 02:30:47;;;;;;;;;62.75;48.50;;;;;;;;5058377;28;45390;-81
2022/12/07 02:33:12;;;;;;;;;65.25;51.25;;;;;;;;5059119;28;45390;-81
2022/12/07 02:35:38;;;;;;;;;66.50;53.00;;;;;;;;5058840;28;45339;-81
2022/12/07 02:38:38;;;;;;;;;72.25;54.75;;;;;;;;5057444;28;46053;-81
2022/12/07 02:41:07;;;;;;;;;76.25;59.25;;;;;;;;5054687;28;45751;-81
2022/12/07 02:43:38;;;;;;;;;75.25;58.50;;;;;;;;5058929;28;45483;-81
2022/12/07 02:46:23;;;;;;;;;75.00;57.25;;;;;;;;5057458;28;45390;-81
2022/12/07 02:48:49;;;;;;;;;68.25;54.50;;;;;;;;5057005;28;47060;-81
2022/12/07 02:51:16;;;;;;;;;66.25;51.75;;;;;;;;5058830;28;47034;-82
2022/12/07 02:53:42;;;;;;;;;68.75;54.50;;;;;;;;5060979;28;45330;-81
2022/12/07 02:56:19;;;;;;;;;70.75;56.25;;;;;;;;5060888;28;45430;-81
2022/12/07 02:58:55;;;;;;;;;68.75;53.50;;;;;;;;5060975;28;46011;-81
2022/12/07 03:01:20;;;;;;;;;67.75;54.00;;;;;;;;5060716;28;47190;-81
2022/12/07 03:03:51;;;;;;;;;66.50;52.50;;;;;;;;5060848;28;45343;-81
2022/12/07 03:06:20;;;;;;;;;58.75;49.75;;;;;;;;5059673;28;45350;-81
2022/12/07 03:08:48;;;;;;;;;68.75;56.00;;;;;;;;5061905;28;45469;-81
2022/12/07 03:11:21;;;;;;;;;67.75;53.25;;;;;;;;5062155;28;45278;-81
2022/12/07 03:13:52;;;;;;;;;67.25;53.25;;;;;;;;5060562;28;45387;-81
2022/12/07 03:16:24;;;;;;;;;67.75;55.50;;;;;;;;5060726;28;45452;-81
2022/12/07 03:18:52;;;;;;;;;67.75;54.50;;;;;;;;5060221;28;46106;-81
2022/12/07 03:21:20;;;;;;;;;60.75;51.25;;;;;;;;5061748;28;46635;-81
2022/12/07 03:23:48;;;;;;;;;68.25;53.75;;;;;;;;5061605;28;45366;-81
2022/12/07 03:26:14;;;;;;;;;65.50;51.00;;;;;;;;5062021;28;45373;-81
2022/12/07 03:28:42;;;;;;;;;57.25;47.25;;;;;;;;5060449;28;46043;-81
2022/12/07 03:31:10;;;;;;;;;62.25;50.50;;;;;;;;5060223;28;47241;-81
2022/12/07 03:33:47;;;;;;;;;61.75;47.25;;;;;;;;5061654;28;45385;-82
2022/12/07 03:36:27;;;;;;;;;63.50;50.75;;;;;;;;5061543;28;45276;-81
2022/12/07 03:39:00;;;;;;;;;62.75;50.25;;;;;;;;5061102;28;45329;-81
2022/12/07 03:41:29;;;;;;;;;59.00;49.25;;;;;;;;5061481;28;46218;-81
2022/12/07 03:43:55;;;;;;;;;68.00;52.50;;;;;;;;5061491;28;45631;-81
2022/12/07 03:46:28;;;;;;;;;59.75;48.25;;;;;;;;5060308;28;45273;-81
2022/12/07 03:48:57;;;;;;;;;67.75;54.00;;;;;;;;5059700;28;46483;-78
2022/12/07 03:51:28;;;;;;;;;60.25;47.00;;;;;;;;5061572;28;45346;-81
2022/12/07 03:53:53;;;;;;;;;61.25;49.50;;;;;;;;5061358;28;45337;-80
2022/12/07 03:56:20;;;;;;;;;61.00;50.50;;;;;;;;5060166;28;45436;-80
2022/12/07 03:58:46;;;;;;;;;18.25;18.25;;;;;;;;5061538;28;45443;-80
2022/12/07 04:01:11;;;;;;;;;66.00;51.50;;;;;;;;5060881;28;46330;-81
2022/12/07 04:03:36;;;;;;;;;58.25;47.25;;;;;;;;5059180;28;45380;-81
2022/12/07 04:06:07;;;;;;;;;60.50;48.25;;;;;;;;5061102;28;45630;-81
2022/12/07 04:08:32;;;;;;;;;64.00;48.75;;;;;;;;5061376;28;45417;-81
2022/12/07 04:10:57;;;;;;;;;60.75;47.75;;;;;;;;5059918;28;46821;-81
2022/12/07 04:13:23;;;;;;;;;63.25;50.25;;;;;;;;5060919;28;45317;-81
2022/12/07 04:15:48;;;;;;;;;59.25;48.50;;;;;;;;5061422;28;45398;-81
2022/12/07 04:18:13;;;;;;;;;63.75;50.25;;;;;;;;5060792;28;45628;-82
2022/12/07 04:20:38;;;;;;;;;57.00;45.50;;;;;;;;5059693;28;48366;-81
2022/12/07 04:23:03;;;;;;;;;65.50;52.25;;;;;;;;5059628;28;45360;-82
2022/12/07 04:25:29;;;;;;;;;63.00;49.25;;;;;;;;5059786;28;45239;-82
2022/12/07 04:27:54;;;;;;;;;58.75;46.00;;;;;;;;5061064;28;45456;-82
2022/12/07 04:30:19;;;;;;;;;63.00;48.00;;;;;;;;5059376;28;47271;-81
2022/12/07 04:32:44;;;;;;;;;58.00;45.75;;;;;;;;5059544;28;45271;-82
2022/12/07 04:35:09;;;;;;;;;59.25;47.00;;;;;;;;5059491;28;45421;-81
2022/12/07 04:37:41;;;;;;;;;62.75;48.25;;;;;;;;5060580;28;45385;-81
2022/12/07 04:40:11;;;;;;;;;57.75;47.50;;;;;;;;5060606;28;45543;-81
2022/12/07 04:42:36;;;;;;;;;49.25;41.00;;;;;;;;5060452;28;45282;-81
2022/12/07 04:45:04;;;;;;;;;56.25;46.00;;;;;;;;5059463;28;45329;-81
2022/12/07 04:47:29;;;;;;;;;57.25;43.75;;;;;;;;5059151;28;46441;-81
2022/12/07 04:49:54;;;;;;;;;62.50;47.75;;;;;;;;5060192;28;45446;-81
2022/12/07 04:52:20;;;;;;;;;60.50;49.25;;;;;;;;5059090;28;45460;-82
2022/12/07 04:54:45;;;;;;;;;52.75;43.50;;;;;;;;5060885;28;45389;-82
2022/12/07 04:57:10;;;;;;;;;51.00;42.50;;;;;;;;5059162;28;46073;-82
2022/12/07 04:59:35;;;;;;;;;50.75;43.50;;;;;;;;5058792;28;47372;-82
2022/12/07 05:02:00;;;;;;;;;54.25;44.00;;;;;;;;5060526;28;45628;-82
2022/12/07 05:04:26;;;;;;;;;43.00;34.50;;;;;;;;5060156;28;45457;-82
2022/12/07 05:06:51;;;;;;;;;50.75;42.75;;;;;;;;5060244;28;45491;-82
2022/12/07 05:09:16;;;;;;;;;51.00;41.75;;;;;;;;5060021;28;45267;-82
2022/12/07 05:11:43;;;;;;;;;55.25;43.25;;;;;;;;5059945;28;45409;-82
2022/12/07 05:14:11;;;;;;;;;51.50;39.00;;;;;;;;5060385;28;45416;-81
2022/12/07 05:16:37;;;;;;;;;54.50;43.50;;;;;;;;5059928;28;45402;-82
2022/12/07 05:19:02;;;;;;;;;47.75;42.00;;;;;;;;5058249;28;46970;-82
2022/12/07 05:21:27;;;;;;;;;50.25;41.25;;;;;;;;5058768;28;46069;-82
2022/12/07 05:23:52;;;;;;;;;47.25;40.75;;;;;;;;5058823;28;45277;-82
2022/12/07 05:26:18;;;;;;;;;55.75;41.50;;;;;;;;5058626;28;46154;-82
2022/12/07 05:28:43;;;;;;;;;48.00;38.75;;;;;;;;5059764;28;45401;-82
2022/12/07 05:31:09;;;;;;;;;54.50;42.75;;;;;;;;5060025;28;45225;-81
2022/12/07 05:33:34;;;;;;;;;52.00;40.25;;;;;;;;5059990;28;45242;-82
2022/12/07 05:36:05;;;;;;;;;45.00;39.75;;;;;;;;5059804;28;45583;-82
2022/12/07 05:38:30;;;;;;;;;49.25;37.50;;;;;;;;5059413;28;45421;-81
2022/12/07 05:40:55;;;;;;;;;56.50;44.25;;;;;;;;5058105;28;45473;-82
2022/12/07 05:43:20;;;;;;;;;49.00;40.75;;;;;;;;5060036;28;45366;-82
2022/12/07 05:45:45;;;;;;;;;52.50;39.25;;;;;;;;5058243;28;46310;-82
2022/12/07 05:48:11;;;;;;;;;51.75;40.00;;;;;;;;5059645;28;45313;-82
2022/12/07 05:50:36;;;;;;;;;49.75;40.00;;;;;;;;5057897;28;45349;-83
2022/12/07 05:53:04;;;;;;;;;54.25;45.50;;;;;;;;5058126;28;45698;-82
2022/12/07 05:55:29;;;;;;;;;50.00;41.25;;;;;;;;5058324;28;47123;-83
2022/12/07 06:00:38;;;;;;;;;55.25;44.00;;;;;;;;5059498;28;45248;-82
2022/12/07 06:03:07;;;;;;;;;55.25;44.75;;;;;;;;5058168;28;45425;-82
2022/12/07 06:05:32;;;;;;;;;55.50;44.25;;;;;;;;5057869;28;46058;-82
2022/12/07 06:07:57;;;;;;;;;63.25;49.00;;;;;;;;5057562;28;48036;-82
2022/12/07 06:10:22;;;;;;;;;62.00;51.00;;;;;;;;5059334;28;45417;-83
2022/12/07 06:12:50;;;;;;;;;58.50;47.00;;;;;;;;5053234;28;45543;-83
2022/12/07 06:15:15;;;;;;;;;58.50;45.50;;;;;;;;5055308;28;45529;-82
2022/12/07 06:17:40;;;;;;;;;57.75;46.00;;;;;;;;5057069;28;47128;-82
2022/12/07 06:20:06;;;;;;;;;59.50;47.25;;;;;;;;5058971;28;45318;-84
2022/12/07 06:22:34;;;;;;;;;52.25;44.00;;;;;;;;5052019;28;45637;-82
2022/12/07 06:25:01;;;;;;;;;56.50;42.25;;;;;;;;5053102;28;45544;-81
2022/12/07 06:27:26;;;;;;;;;61.00;46.75;;;;;;;;5057423;28;48140;-81
2022/12/07 06:29:51;;;;;;;;;61.00;50.00;;;;;;;;5059077;28;45456;-81
2022/12/07 06:32:43;;;;;;;;;53.50;44.50;;;;;;;;5059237;28;45337;-82
2022/12/07 06:35:08;;;;;;;;;55.50;45.25;;;;;;;;5052122;28;47232;-83
2022/12/07 06:40:36;;;;;;;;;53.50;44.25;;;;;;;;5058283;28;45466;-84
2022/12/07 06:43:09;;;;;;;;;55.25;46.00;;;;;;;;5053950;28;45373;-84
2022/12/07 06:45:54;;;;;;;;;60.50;49.00;;;;;;;;5048154;28;46384;-85
2022/12/07 06:48:27;;;;;;;;;60.50;49.50;;;;;;;;5057209;28;48104;-82
2022/12/07 06:50:53;;;;;;;;;64.50;52.25;;;;;;;;5057836;28;45526;-82
2022/12/07 06:53:18;;;;;;;;;62.50;51.75;;;;;;;;5058701;28;45507;-82
2022/12/07 06:55:43;;;;;;;;;63.50;51.50;;;;;;;;5057660;28;46976;-82
2022/12/07 06:58:09;;;;;;;;;59.75;48.50;;;;;;;;5058658;28;46352;-82
2022/12/07 07:00:35;;;;;;;;;68.25;52.25;;;;;;;;5058685;28;45283;-82
2022/12/07 07:03:00;;;;;;;;;57.75;46.25;;;;;;;;5058896;28;45464;-81
2022/12/07 07:05:25;;;;;;;;;62.75;50.75;;;;;;;;5058392;28;45370;-81
2022/12/07 07:07:50;;;;;;;;;61.50;50.00;;;;;;;;5058757;28;46304;-82
2022/12/07 07:10:15;;;;;;;;;59.00;47.50;;;;;;;;5057294;28;45913;-81
2022/12/07 07:12:41;;;;;;;;;61.50;49.25;;;;;;;;5057635;28;45381;-82
2022/12/07 07:15:06;;;;;;;;;57.25;48.00;;;;;;;;5057233;28;45400;-82
2022/12/07 07:17:31;;;;;;;;;62.75;51.75;;;;;;;;5056498;28;45560;-81
2022/12/07 07:19:57;;;;;;;;;65.00;50.75;;;;;;;;5057593;28;45269;-82
2022/12/07 07:22:38;;;;;;;;;;;;;;;;;;;;;
2022/12/07 07:25:21;;;;;;;;;70.00;51.50;;;;;;;;5055702;28;74336;-82
2022/12/07 07:27:46;;;;;;;;;65.25;51.25;;;;;;;;5050592;28;45566;-79
2022/12/07 07:30:20;;;;;;;;;66.75;53.25;;;;;;;;5058372;28;45290;-80
2022/12/07 07:32:45;;;;;;;;;63.75;52.00;;;;;;;;5056121;28;45468;-81
2022/12/07 07:35:11;;;;;;;;;65.50;54.00;;;;;;;;5056583;28;47053;-82
2022/12/07 07:37:36;;;;;;;;;62.75;49.00;;;;;;;;5058463;28;45402;-81
2022/12/07 07:40:01;;;;;;;;;56.75;47.75;;;;;;;;5061766;28;45615;-81
2022/12/07 07:42:26;;;;;;;;;59.00;48.00;;;;;;;;5061966;28;45548;-81
2022/12/07 07:44:51;;;;;;;;;59.75;48.75;;;;;;;;5061157;28;46384;-80
2022/12/07 07:47:17;;;;;;;;;63.50;50.25;;;;;;;;5059274;28;47554;-80
2022/12/07 07:49:42;;;;;;;;;70.00;56.50;;;;;;;;5063101;28;45434;-81
2022/12/07 07:52:07;;;;;;;;;66.50;53.50;;;;;;;;5060330;28;45337;-81
2022/12/07 07:54:32;;;;;;;;;65.50;55.25;;;;;;;;5063863;28;45340;-81
2022/12/07 07:56:57;;;;;;;;;68.50;56.25;;;;;;;;5065576;28;46462;-79
2022/12/07 07:59:23;;;;;;;;;68.50;55.00;;;;;;;;5054782;28;45326;-80
2022/12/07 08:01:48;;;;;;;;;50.00;39.25;;;;;;;;5061752;28;45476;-82
2022/12/07 08:04:13;;;;;;;;;61.00;45.00;;;;;;;;5060330;28;45530;-83
2022/12/07 08:06:38;;;;;;;;;70.75;56.75;;;;;;;;5053951;28;45615;-81
2022/12/07 08:09:05;;;;;;;;;64.75;52.00;;;;;;;;5055692;28;45769;-80
2022/12/07 08:11:30;;;;;;;;;64.75;53.50;;;;;;;;5055055;28;45457;-80
2022/12/07 08:13:56;;;;;;;;;64.25;53.50;;;;;;;;5060298;28;45517;-81
2022/12/07 08:16:21;;;;;;;;;62.75;49.25;;;;;;;;5058092;28;46219;-79
2022/12/07 08:18:46;;;;;;;;;66.25;54.25;;;;;;;;5053737;28;45255;-81
2022/12/07 08:21:12;;;;;;;;;66.75;53.75;;;;;;;;5040383;28;45537;-81
2022/12/07 08:23:38;;;;;;;;;67.00;53.25;;;;;;;;5041834;28;47208;-81
2022/12/07 08:26:04;;;;;;;;;68.75;53.75;;;;;;;;5055434;28;47323;-79
2022/12/07 08:28:29;;;;;;;;;66.25;54.25;;;;;;;;5060598;28;45270;-80
2022/12/07 08:30:58;;;;;;;;;64.75;53.00;;;;;;;;5060849;28;45261;-81
2022/12/07 08:33:23;;;;;;;;;65.75;52.00;;;;;;;;5060147;28;45973;-81
2022/12/07 08:35:49;;;;;;;;;65.75;52.00;;;;;;;;5059306;28;47943;-80
2022/12/07 08:38:14;;;;;;;;;30.75;27.00;;;;;;;;5054554;28;45421;-79
2022/12/07 08:40:40;;;;;;;;;64.50;53.25;;;;;;;;5055665;28;45247;-80
2022/12/07 08:43:05;;;;;;;;;65.00;52.50;;;;;;;;5054672;28;45554;-81
2022/12/07 08:45:35;;;;;;;;;68.25;55.25;;;;;;;;5045755;28;48314;-79
2022/12/07 08:48:05;;;;;;;;;66.50;52.75;;;;;;;;5059601;28;45235;-79
2022/12/07 08:50:31;;;;;;;;;65.25;52.25;;;;;;;;5061167;28;45345;-78
2022/12/07 08:52:58;;;;;;;;;63.00;49.00;;;;;;;;5066598;28;45318;-79
2022/12/07 08:55:23;;;;;;;;;75.25;61.00;;;;;;;;5065612;28;48499;-80
2022/12/07 08:57:49;;;;;;;;;78.75;62.50;;;;;;;;5065151;28;45278;-76
2022/12/07 09:00:16;;;;;;;;;78.75;62.25;;;;;;;;5061968;28;45325;-76
2022/12/07 09:02:42;;;;;;;;;71.50;55.00;;;;;;;;5058298;28;45494;-76
2022/12/07 09:05:08;;;;;;;;;72.00;55.75;;;;;;;;5059605;28;46387;-76
2022/12/07 09:07:33;;;;;;;;;69.00;55.25;;;;;;;;5060096;28;45361;-76
2022/12/07 09:09:59;;;;;;;;;69.50;54.00;;;;;;;;5059428;28;45386;-76
2022/12/07 09:12:24;;;;;;;;;82.00;70.25;;;;;;;;5058459;28;45460;-77
2022/12/07 09:14:49;;;;;;;;;36.75;28.25;;;;;;;;5060396;28;45555;-77
2022/12/07 09:17:15;;;;;;;;;68.75;54.25;;;;;;;;5060175;28;45349;-78
2022/12/07 09:19:42;;;;;;;;;63.25;49.50;;;;;;;;5058802;28;45542;-76
2022/12/07 09:22:07;;;;;;;;;65.00;51.50;;;;;;;;5059007;28;46079;-76
2022/12/07 09:24:32;;;;;;;;;67.00;54.25;;;;;;;;5059861;28;45880;-77
2022/12/07 09:26:57;;;;;;;;;64.00;53.50;;;;;;;;5060269;28;45283;-76
2022/12/07 09:29:23;;;;;;;;;79.00;62.75;;;;;;;;5060365;28;45338;-77
2022/12/07 09:31:48;;;;;;;;;75.75;59.75;;;;;;;;5058811;28;47447;-77
2022/12/07 09:34:13;;;;;;;;;69.00;55.25;;;;;;;;5058551;28;46991;-77
2022/12/07 09:36:38;;;;;;;;;63.75;52.25;;;;;;;;5058562;28;45731;-77
2022/12/07 09:39:04;;;;;;;;;67.50;51.00;;;;;;;;5059833;28;45196;-77
2022/12/07 09:41:31;;;;;;;;;68.50;55.25;;;;;;;;5058423;28;45683;-77
2022/12/07 09:44:02;;;;;;;;;65.50;50.75;;;;;;;;5058552;28;48468;-77
2022/12/07 09:46:28;;;;;;;;;65.00;52.25;;;;;;;;5059668;28;45433;-77
2022/12/07 09:48:53;;;;;;;;;71.00;56.25;;;;;;;;5059882;28;45266;-77
2022/12/07 09:51:20;;;;;;;;;68.00;54.25;;;;;;;;5059841;28;45541;-77
2022/12/07 09:53:46;;;;;;;;;67.75;54.25;;;;;;;;5058115;28;47707;-77
2022/12/07 09:56:13;;;;;;;;;66.25;53.50;;;;;;;;5059709;28;45359;-77
2022/12/07 09:58:38;;;;;;;;;66.50;54.75;;;;;;;;5055618;28;45520;-77
2022/12/07 10:01:06;;;;;;;;;67.50;55.00;;;;;;;;5056849;28;46169;-77
2022/12/07 10:03:32;;;;;;;;;68.75;56.25;;;;;;;;5058403;28;45443;-76
2022/12/07 10:05:57;;;;;;;;;70.75;56.50;;;;;;;;5060289;28;45328;-78
2022/12/07 10:08:22;;;;;;;;;67.75;53.25;;;;;;;;5060956;28;45310;-77
2022/12/07 10:10:51;;;;;;;;;67.50;52.50;;;;;;;;5059465;28;45256;-77
2022/12/07 10:13:21;;;;;;;;;71.50;54.00;;;;;;;;5059391;28;46311;-77
2022/12/07 10:15:54;;;;;;;;;74.00;58.75;;;;;;;;5058283;28;45608;-77
2022/12/07 10:18:25;;;;;;;;;76.00;60.75;;;;;;;;5058202;28;45489;-77
2022/12/07 10:21:00;;;;;;;;;72.75;55.75;;;;;;;;5045050;28;45295;-78
2022/12/07 10:23:25;;;;;;;;;72.50;58.25;;;;;;;;5059212;28;46372;-77
2022/12/07 10:25:54;;;;;;;;;73.25;57.00;;;;;;;;5059260;28;45334;-77
2022/12/07 10:28:20;;;;;;;;;83.75;64.25;;;;;;;;5059580;28;45344;-78
2022/12/07 10:31:08;;;;;;;;;71.25;56.75;;;;;;;;5058282;28;47353;-78
2022/12/07 10:33:39;;;;;;;;;70.75;55.00;;;;;;;;5058717;28;45612;-77
2022/12/07 10:36:21;;;;;;;;;71.75;54.25;;;;;;;;5059092;28;45363;-78
2022/12/07 10:38:49;;;;;;;;;71.25;55.50;;;;;;;;5059148;28;45412;-79
2022/12/07 10:41:15;;;;;;;;;72.00;57.00;;;;;;;;5059134;28;45552;-79
2022/12/07 10:43:48;;;;;;;;;72.75;55.75;;;;;;;;5059043;28;46123;-78
2022/12/07 10:46:25;;;;;;;;;74.00;58.00;;;;;;;;5059207;28;45337;-79
2022/12/07 10:49:02;;;;;;;;;72.25;55.75;;;;;;;;5058207;28;45405;-78
2022/12/07 10:51:37;;;;;;;;;73.50;58.00;;;;;;;;5049933;28;45563;-77
2022/12/07 10:54:18;;;;;;;;;67.25;55.25;;;;;;;;5058942;28;47427;-78
2022/12/07 10:56:51;;;;;;;;;65.50;51.50;;;;;;;;5066740;28;44786;-78
2022/12/07 10:59:16;;;;;;;;;66.75;55.00;;;;;;;;5061975;28;45542;-79
2022/12/07 11:01:48;;;;;;;;;71.00;56.50;;;;;;;;5058298;28;46889;-77
2022/12/07 11:04:32;;;;;;;;;72.50;56.25;;;;;;;;5047177;28;46200;-78
2022/12/07 11:06:57;;;;;;;;;75.00;60.00;;;;;;;;5058581;28;45312;-79
2022/12/07 11:09:38;;;;;;;;;78.25;62.00;;;;;;;;5057445;28;45220;-79
2022/12/07 11:12:14;;;;;;;;;69.75;55.00;;;;;;;;5059789;28;45346;-80
2022/12/07 11:14:58;;;;;;;;;63.25;51.25;;;;;;;;5060959;28;47313;-79
2022/12/07 11:17:38;;;;;;;;;69.75;55.25;;;;;;;;5060915;28;45432;-79
2022/12/07 11:20:26;;;;;;;;;66.50;54.75;;;;;;;;5062207;28;45323;-79
2022/12/07 11:22:58;;;;;;;;;65.75;52.25;;;;;;;;5059073;28;46265;-79
2022/12/07 11:25:42;;;;;;;;;64.25;52.00;;;;;;;;5062178;28;46174;-79
2022/12/07 11:28:26;;;;;;;;;61.00;50.75;;;;;;;;5061519;28;45747;-80
2022/12/07 11:31:03;;;;;;;;;59.75;48.75;;;;;;;;5064106;28;45512;-79
2022/12/07 11:33:52;;;;;;;;;58.00;47.25;;;;;;;;5062608;28;45212;-80
2022/12/07 11:36:28;;;;;;;;;62.75;49.50;;;;;;;;5064075;28;45667;-78
2022/12/07 11:38:55;;;;;;;;;54.50;43.25;;;;;;;;5068439;28;45393;-79
2022/12/07 11:41:23;;;;;;;;;53.00;43.00;;;;;;;;5061604;28;45252;-79
2022/12/07 11:44:02;;;;;;;;;56.50;45.50;;;;;;;;5062992;28;45446;-78
2022/12/07 11:46:35;;;;;;;;;72.50;58.50;;;;;;;;5064086;28;46447;-80
2022/12/07 11:49:10;;;;;;;;;47.50;40.25;;;;;;;;5060910;28;45511;-78
2022/12/07 11:51:37;;;;;;;;;49.00;39.50;;;;;;;;5061450;28;45420;-79
2022/12/07 11:54:05;;;;;;;;;48.00;40.00;;;;;;;;5060406;28;45351;-78
2022/12/07 11:56:36;;;;;;;;;46.00;39.25;;;;;;;;5062848;28;45985;-78
2022/12/07 11:59:10;;;;;;;;;48.50;39.50;;;;;;;;5062244;28;45420;-79
2022/12/07 12:01:35;;;;;;;;;49.25;41.25;;;;;;;;5053302;28;45422;-78
2022/12/07 12:04:09;;;;;;;;;46.50;39.75;;;;;;;;5041582;28;45401;-79
2022/12/07 12:06:37;;;;;;;;;48.25;39.00;;;;;;;;5056260;28;47310;-80
2022/12/07 12:09:13;;;;;;;;;41.00;36.50;;;;;;;;5063563;28;45538;-79
2022/12/07 12:11:57;;;;;;;;;49.25;40.75;;;;;;;;5060865;28;45420;-78
2022/12/07 12:14:25;;;;;;;;;45.75;38.50;;;;;;;;5062464;28;45535;-76
2022/12/07 12:17:09;;;;;;;;;41.25;34.75;;;;;;;;5055946;28;45424;-79
2022/12/07 12:19:38;;;;;;;;;49.00;39.75;;;;;;;;5038991;28;45349;-78
2022/12/07 12:22:12;;;;;;;;;42.00;37.25;;;;;;;;5049426;28;45664;-78
2022/12/07 12:24:39;;;;;;;;;38.75;35.75;;;;;;;;5058466;28;46302;-79
2022/12/07 12:27:06;;;;;;;;;46.75;39.00;;;;;;;;5061340;28;45341;-77
2022/12/07 12:29:41;;;;;;;;;32.00;29.75;;;;;;;;5058613;28;45410;-79
2022/12/07 12:32:23;;;;;;;;;24.00;23.33;;;;;;;;5063451;28;45376;-78
2022/12/07 12:34:58;;;;;;;;;26.67;24.00;;;;;;;;5065659;28;45962;-78
2022/12/07 12:37:32;;;;;;;;;26.33;23.33;;;;;;;;5065332;28;45346;-78
2022/12/07 12:40:15;;;;;;;;;28.00;23.67;;;;;;;;5066148;28;45306;-76
2022/12/07 12:42:45;;;;;;;;;28.67;27.33;;;;;;;;5063274;28;45274;-78
2022/12/07 12:45:24;;;;;;;;;24.00;23.00;;;;;;;;5062283;28;46194;-79
2022/12/07 12:48:03;;;;;;;;;25.33;25.33;;;;;;;;5063687;28;48359;-78
2022/12/07 12:50:29;;;;;;;;;32.00;28.33;;;;;;;;5064007;28;45291;-78
2022/12/07 12:52:58;;;;;;;;;27.67;25.00;;;;;;;;5059029;28;45153;-78
2022/12/07 12:55:46;;;;;;;;;21.67;20.67;;;;;;;;5055176;28;45899;-78
2022/12/07 12:58:17;;;;;;;;;25.33;24.33;;;;;;;;5061686;28;46103;-78
2022/12/07 13:00:43;;;;;;;;;29.00;24.33;;;;;;;;5060534;28;45350;-78
2022/12/07 13:03:20;;;;;;;;;22.00;20.67;;;;;;;;5063346;28;45393;-79
2022/12/07 13:05:45;;;;;;;;;27.00;25.67;;;;;;;;5063588;28;47221;-80
2022/12/07 13:08:24;;;;;;;;;26.00;23.67;;;;;;;;5064176;28;45319;-80
2022/12/07 13:10:49;;;;;;;;;21.00;20.00;;;;;;;;5064767;28;45309;-80
2022/12/07 13:13:15;;;;;;;;;25.00;23.67;;;;;;;;5068329;28;45306;-79
2022/12/07 13:15:40;;;;;;;;;19.67;19.67;;;;;;;;5066186;28;45513;-78
2022/12/07 13:18:08;;;;;;;;;38.00;35.00;;;;;;;;5069913;28;46291;-79
2022/12/07 13:20:44;;;;;;;;;28.00;25.67;;;;;;;;5065174;28;45376;-79
2022/12/07 13:23:10;;;;;;;;;27.33;26.00;;;;;;;;5062447;28;45390;-79
2022/12/07 13:25:37;;;;;;;;;18.00;17.67;;;;;;;;5062869;28;45481;-80
2022/12/07 13:28:14;;;;;;;;;29.00;27.00;;;;;;;;5060860;28;47257;-79
2022/12/07 13:30:59;;;;;;;;;19.33;18.67;;;;;;;;5064841;28;45239;-79
2022/12/07 13:33:27;;;;;;;;;25.00;25.00;;;;;;;;5060892;28;45196;-79
2022/12/07 13:35:56;;;;;;;;;18.67;17.33;;;;;;;;5060497;28;45322;-79
2022/12/07 13:38:24;;;;;;;;;18.00;17.00;;;;;;;;5059584;28;48149;-79
2022/12/07 13:41:12;;;;;;;;;22.50;18.50;;;;;;;;5060692;28;45230;-79
2022/12/07 13:44:04;;;;;;;;;17.67;16.67;;;;;;;;5061163;28;45306;-79
2022/12/07 13:46:33;;;;;;;;;16.67;15.67;;;;;;;;5058808;28;45409;-79
2022/12/07 13:48:59;;;;;;;;;19.33;17.00;;;;;;;;5058683;28;48354;-79
2022/12/07 13:51:25;;;;;;;;;22.33;19.00;;;;;;;;5060468;28;45288;-78
2022/12/07 13:53:53;;;;;;;;;19.33;17.00;;;;;;;;5062502;28;45313;-79
2022/12/07 13:56:20;;;;;;;;;18.33;16.00;;;;;;;;5060386;28;45304;-79
2022/12/07 13:58:45;;;;;;;;;21.00;18.00;;;;;;;;5059458;28;47078;-79
2022/12/07 14:01:11;;;;;;;;;14.00;12.67;;;;;;;;5064104;28;45325;-79
2022/12/07 14:03:36;;;;;;;;;19.00;15.00;;;;;;;;5076661;28;45397;-79
2022/12/07 14:06:06;;;;;;;;;18.67;18.00;;;;;;;;5060068;28;45950;-79
2022/12/07 14:08:31;;;;;;;;;19.00;16.67;;;;;;;;5061716;28;46555;-79
2022/12/07 14:10:58;;;;;;;;;16.33;16.00;;;;;;;;5065234;28;45255;-79
2022/12/07 14:13:26;;;;;;;;;17.33;16.33;;;;;;;;5061991;28;45262;-80
2022/12/07 14:15:51;;;;;;;;;26.33;24.67;;;;;;;;5066665;28;45307;-80
2022/12/07 14:18:30;;;;;;;;;26.67;25.33;;;;;;;;5063243;28;46946;-80
2022/12/07 14:21:10;;;;;;;;;18.00;16.00;;;;;;;;5068084;28;45358;-79
2022/12/07 14:23:36;;;;;;;;;22.00;19.67;;;;;;;;5068116;28;45514;-80
2022/12/07 14:26:13;;;;;;;;;22.33;20.67;;;;;;;;5062038;28;45438;-80
2022/12/07 14:28:38;;;;;;;;;24.33;22.33;;;;;;;;5056311;28;46501;-79
2022/12/07 14:31:07;;;;;;;;;30.67;29.33;;;;;;;;5060806;28;45445;-78
2022/12/07 14:33:32;;;;;;;;;34.00;31.33;;;;;;;;5057632;28;45381;-78
2022/12/07 14:35:57;;;;;;;;;30.33;27.00;;;;;;;;5056558;28;45426;-79